KSJN/SJN METAR and TAF weather

Enter ICAO airport designator
Station Type Date Time Source
KSJN METAR 2021/07/30 06:54 UTC NOAA

KSJN 300654Z AUTO 00000KT 10SM SCT085 BKN110 18/17 A3027 RMK AO2 SLP149 T01830167 403060172


Station Type Date Time Source
KSJN Decoded METAR 2021/07/30 06:54 UTC NOAA

ST JOHNS INDUSTRIAL AIRPRK, AZ, United States (KSJN) 34-31N 109-23W 1745M
Jul 30, 2021 - 02:54 AM EDT / 2021.07.30 0654 UTC
Wind: Calm:0
Visibility: 10 mile(s):0
Sky conditions: mostly cloudy
Temperature: 64.9 F (18.3 C)
Dew Point: 62.1 F (16.7 C)
Relative Humidity: 90%
Pressure (altimeter): 30.27 in. Hg (1025 hPa)
ob: KSJN 300654Z AUTO 00000KT 10SM SCT085 BKN110 18/17 A3027 RMK AO2 SLP149 T01830167 403060172
cycle: 7

Station Type Date Time Source
KSJN TAF UTC NOAA

Error!

Example: see airport list